Time;durP1;ratioP1;P1;durP2;ratioP2;P2;SDS_P1;SDS_P2;PMS_P1;PMS_P2;Temp;Humidity;BMP_temperature;BMP_pressure;BME280_temperature;BME280_humidity;BME280_pressure;Samples;Min_cycle;Max_cycle;Signal;HPM_P1;HPM_P2
2022/12/27 00:02:02;;;;;;;12.48;2.67;;;8.80;70.40;;;7.91;55.24;101135.84;5052266;28;20516;-72
2022/12/27 00:04:29;;;;;;;10.85;2.53;;;8.80;70.10;;;7.79;55.07;101135.41;5057836;28;20083;-72
2022/12/27 00:06:57;;;;;;;15.40;3.42;;;8.80;69.80;;;7.71;54.94;101138.09;5050204;28;20037;-72
2022/12/27 00:09:24;;;;;;;12.27;2.70;;;8.70;70.00;;;7.71;54.96;101128.34;5050526;28;20051;-73
2022/12/27 00:11:51;;;;;;;13.20;3.55;;;8.70;70.10;;;7.66;55.74;101138.66;5050223;28;20045;-72
2022/12/27 00:14:18;;;;;;;11.40;2.75;;;8.80;70.70;;;7.66;55.92;101146.63;5049840;28;20082;-73
2022/12/27 00:16:45;;;;;;;13.32;2.78;;;8.60;70.70;;;7.66;55.56;101146.63;5049461;28;20037;-72
2022/12/27 00:19:14;;;;;;;11.73;2.55;;;8.70;70.70;;;7.66;55.86;101148.44;5064202;28;20086;-73
2022/12/27 00:21:41;;;;;;;15.30;3.88;;;8.70;70.90;;;7.66;55.57;101136.00;5081794;28;20036;-73
2022/12/27 00:24:10;;;;;;;11.43;3.03;;;8.70;70.50;;;7.60;55.87;101149.94;5069268;28;20404;-73
2022/12/27 00:26:38;;;;;;;8.55;2.80;;;8.60;70.70;;;7.61;56.13;101154.28;5047092;28;20045;-72
2022/12/27 00:29:06;;;;;;;12.57;2.90;;;8.60;70.70;;;7.65;55.56;101154.75;5050867;28;20113;-72
2022/12/27 00:31:34;;;;;;;10.90;2.88;;;8.60;70.50;;;7.70;56.00;101155.03;5082776;28;20058;-73
2022/12/27 00:34:04;;;;;;;10.00;3.10;;;8.60;70.90;;;7.75;56.03;101145.53;5067521;28;20048;-73
2022/12/27 00:36:33;;;;;;;10.80;2.97;;;8.70;71.10;;;7.79;55.79;101147.84;5056731;28;20041;-73
2022/12/27 00:39:00;;;;;;;16.75;3.25;;;8.70;71.00;;;7.68;55.53;101155.22;5069876;28;20051;-73
2022/12/27 00:41:28;;;;;;;11.65;2.50;;;8.60;70.70;;;7.66;55.98;101141.31;5068813;28;20044;-73
2022/12/27 00:43:55;;;;;;;9.73;3.13;;;8.60;70.90;;;7.65;56.24;101146.78;5074287;28;20044;-73
2022/12/27 00:46:22;;;;;;;12.38;2.90;;;8.60;71.10;;;7.66;55.89;101146.63;5063412;28;20492;-73
2022/12/27 00:48:49;;;;;;;6.82;2.80;;;8.60;71.10;;;7.63;55.95;101146.97;5065103;28;20057;-73
2022/12/27 00:51:20;;;;;;;10.45;2.97;;;8.60;71.00;;;7.62;56.08;101147.97;5050723;28;20048;-73
2022/12/27 00:53:50;;;;;;;12.00;3.08;;;8.60;71.30;;;7.63;55.99;101157.59;5070023;28;20051;-74
2022/12/27 00:56:20;;;;;;;15.17;3.10;;;8.60;71.00;;;7.66;56.09;101159.03;5043954;28;20052;-72
2022/12/27 00:58:51;;;;;;;13.98;2.90;;;8.60;71.10;;;7.52;56.15;101157.97;5073533;28;20041;-73
2022/12/27 01:01:22;;;;;;;10.40;2.95;;;8.60;70.90;;;7.52;56.35;101160.63;5066899;28;20086;-73
2022/12/27 01:03:49;;;;;;;13.30;3.10;;;8.60;71.40;;;7.57;56.54;101168.91;5049680;28;20131;-73
2022/12/27 01:06:19;;;;;;;14.05;3.55;;;8.60;71.50;;;7.61;56.33;101169.38;5059079;28;20513;-72
2022/12/27 01:08:48;;;;;;;9.65;2.95;;;8.60;71.30;;;7.63;56.37;101162.06;5050063;28;20052;-73
2022/12/27 01:11:18;;;;;;;13.25;3.20;;;8.80;71.50;;;7.64;56.28;101163.72;5070013;28;20036;-72
2022/12/27 01:13:46;;;;;;;11.85;3.10;;;8.60;71.50;;;7.56;56.63;101175.19;5068307;28;20070;-72
2022/12/27 01:16:18;;;;;;;13.40;3.28;;;8.60;71.50;;;7.50;56.65;101170.59;5063792;28;20056;-73
2022/12/27 01:18:47;;;;;;;8.73;2.80;;;8.60;71.60;;;7.56;56.80;101169.88;5066897;28;20047;-72
2022/12/27 01:21:17;;;;;;;12.00;3.40;;;8.50;71.70;;;7.59;56.67;101180.16;5068911;28;20044;-72
2022/12/27 01:23:45;;;;;;;13.23;3.22;;;8.50;71.90;;;7.51;56.85;101166.09;5063453;28;20036;-73
2022/12/27 01:26:16;;;;;;;12.82;3.47;;;8.50;72.00;;;7.55;56.87;101162.94;5049060;28;20060;-73
2022/12/27 01:28:43;;;;;;;9.95;2.58;;;8.50;71.90;;;7.57;56.75;101162.78;5064628;28;20095;-72
2022/12/27 01:31:14;;;;;;;11.32;2.70;;;8.50;72.00;;;7.54;56.86;101174.56;5071722;28;20047;-73
2022/12/27 01:33:42;;;;;;;12.88;3.20;;;8.50;72.10;;;7.49;57.20;101172.41;5071904;28;20120;-73
2022/12/27 01:36:12;;;;;;;12.65;3.20;;;8.50;72.10;;;7.47;56.82;101185.03;5062344;28;20041;-72
2022/12/27 01:38:42;;;;;;;10.07;2.90;;;8.40;72.10;;;7.36;57.41;101187.22;5068367;28;20044;-73
2022/12/27 01:44:48;;;;;;;13.05;3.25;;;8.40;72.80;;;7.46;57.23;101187.84;5064738;28;20036;-73
2022/12/27 01:47:25;;;;;;;11.02;3.17;;;8.50;72.70;;;7.43;57.58;101188.22;5061039;28;20039;-73
2022/12/27 01:50:05;;;;;;;12.77;3.22;;;8.40;72.70;;;7.45;57.29;101204.78;5068023;28;20087;-73
2022/12/27 01:52:38;;;;;;;9.82;2.90;;;8.40;72.90;;;7.42;57.30;101192.69;5063987;28;20041;-73
2022/12/27 01:55:15;;;;;;;13.82;2.80;;;8.40;73.00;;;7.35;57.71;101201.50;5068760;28;20040;-72
2022/12/27 01:57:45;;;;;;;10.95;3.08;;;8.40;73.00;;;7.31;58.10;101211.63;5048692;28;20037;-72
2022/12/27 02:00:14;;;;;;;12.88;3.28;;;8.40;73.10;;;7.35;58.24;101214.78;5071471;28;20075;-72
2022/12/27 02:02:41;;;;;;;10.20;2.60;;;8.40;73.30;;;7.37;58.05;101210.09;5041247;28;20044;-72
2022/12/27 02:05:12;;;;;;;11.32;2.92;;;8.40;73.30;;;7.40;58.07;101212.44;5064452;28;20059;-73
2022/12/27 02:08:05;;;;;;;9.75;3.30;;;8.40;73.50;;;7.34;58.05;101213.13;5061839;28;20055;-73
2022/12/27 02:10:33;;;;;;;13.40;3.10;;;8.30;73.70;;;7.39;58.16;101218.75;5075692;28;20047;-73
2022/12/27 02:13:05;;;;;;;11.95;2.95;;;8.30;73.70;;;7.46;58.08;101214.38;5048016;28;20413;-72
2022/12/27 02:15:32;;;;;;;8.75;2.78;;;8.40;73.70;;;7.38;58.20;101225.88;5064779;28;20036;-73
2022/12/27 02:18:00;;;;;;;10.73;2.72;;;8.30;73.50;;;7.41;58.23;101217.56;5059827;28;20121;-73
2022/12/27 02:20:31;;;;;;;13.57;3.25;;;8.30;73.70;;;7.40;57.94;101220.41;5056694;28;20048;-73
2022/12/27 02:26:36;;;;;;;11.90;2.83;;;8.30;73.90;;;7.23;58.79;101219.63;5055998;28;20059;-72
2022/12/27 02:29:43;;;;;;;13.02;3.17;;;8.30;74.00;;;7.12;58.91;101218.16;5042067;28;20110;-73
2022/12/27 02:32:17;;;;;;;8.10;2.75;;;8.20;74.20;;;7.19;59.00;101224.44;5048198;28;20372;-73
2022/12/27 02:34:57;;;;;;;13.20;2.88;;;8.20;74.30;;;7.23;58.86;101211.69;5058789;28;20048;-73
2022/12/27 02:37:29;;;;;;;9.32;2.63;;;8.20;74.40;;;7.19;59.12;101215.66;5061749;28;20063;-73
2022/12/27 02:53:02;;;;;;;14.30;2.90;;;8.20;74.70;;;7.28;59.04;101227.09;5067752;28;20036;-72
2022/12/27 02:54:39;;;;;;;9.88;2.53;;;8.20;74.70;;;7.28;59.14;101232.38;5071788;28;20066;-73
2022/12/27 02:57:19;;;;;;;12.10;3.30;;;8.20;74.70;;;7.30;58.90;101233.03;5071175;28;20070;-73
2022/12/27 03:03:22;;;;;;;10.65;2.78;;;8.20;75.00;;;7.36;59.00;101227.03;5076707;28;20618;-72
2022/12/27 03:06:41;;;;;;;10.50;2.95;;;8.20;75.10;;;7.29;59.00;101228.72;5069213;28;20044;-73
2022/12/27 03:15:57;;;;;;;13.10;2.83;;;8.20;75.50;;;7.27;59.36;101228.91;5074237;28;20044;-73
2022/12/27 03:18:54;;;;;;;9.98;3.20;;;8.20;75.30;;;7.16;59.50;101230.09;5065980;28;20573;-73
2022/12/27 03:27:01;;;;;;;11.90;3.35;;;8.10;75.90;;;7.19;59.63;101229.75;5046998;28;20048;-72
2022/12/27 03:35:11;;;;;;;11.77;2.45;;;8.20;76.00;;;7.21;60.11;101237.53;5087994;28;20048;-72
2022/12/27 03:43:09;;;;;;;11.95;3.03;;;8.20;76.00;;;7.28;60.36;101243.81;5073909;28;20397;-73
2022/12/27 03:43:28;;;;;;;14.75;2.58;;;8.20;76.20;;;7.25;60.28;101243.34;5060966;28;20588;-72
2022/12/27 03:49:10;;;;;;;12.70;3.00;;;8.20;76.00;;;7.16;60.16;101237.22;5070926;28;20048;-72
2022/12/27 03:51:44;;;;;;;11.40;2.85;;;8.20;76.30;;;7.17;60.20;101241.50;5070144;28;20510;-73
2022/12/27 03:54:18;;;;;;;11.10;3.05;;;8.20;76.30;;;7.14;60.70;101241.88;5069099;28;20052;-73
2022/12/27 03:56:45;;;;;;;7.28;2.90;;;8.10;76.50;;;7.17;60.73;101241.50;5065542;28;20045;-73
2022/12/27 03:59:13;;;;;;;10.60;2.45;;;8.10;76.60;;;7.21;60.37;101238.34;5061168;28;20045;-73
2022/12/27 04:01:41;;;;;;;11.52;2.95;;;8.20;76.50;;;7.26;60.59;101240.50;5056100;28;20052;-73
2022/12/27 04:04:08;;;;;;;9.18;2.67;;;8.20;76.50;;;7.18;60.42;101240.53;5060396;28;20115;-72
2022/12/27 04:06:35;;;;;;;7.45;2.63;;;8.10;76.60;;;7.16;60.48;101240.69;5064406;28;20051;-73
2022/12/27 04:36:32;;;;;;;9.45;2.70;;;8.20;76.70;;;7.32;60.28;101250.44;5056278;28;20500;-72
2022/12/27 04:38:59;;;;;;;13.80;3.00;;;8.20;76.60;;;7.30;60.39;101246.31;5069203;28;20044;-73
2022/12/27 04:55:21;;;;;;;13.05;3.13;;;8.10;77.20;;;7.23;60.98;101262.09;5066560;28;20037;-73
2022/12/27 04:57:50;;;;;;;12.03;2.73;;;8.20;77.30;;;7.27;61.13;101263.41;5057591;28;20055;-73
2022/12/27 05:03:09;;;;;;;9.18;2.70;;;8.20;77.20;;;7.30;60.46;101270.19;5075444;28;20048;-73
2022/12/27 05:05:37;;;;;;;10.10;2.45;;;8.20;77.20;;;7.18;60.78;101273.19;5066957;28;20068;-73
2022/12/27 05:16:21;;;;;;;11.48;2.80;;;8.10;77.90;;;7.10;61.82;101288.28;5065301;28;20056;-72
2022/12/27 05:18:48;;;;;;;10.15;2.70;;;8.10;78.00;;;7.09;62.04;101287.47;5071916;28;20041;-73
2022/12/27 05:21:15;;;;;;;9.52;2.97;;;8.10;78.20;;;7.18;62.11;101293.59;5075780;28;20045;-73
2022/12/27 05:26:30;;;;;;;12.68;2.90;;;8.20;78.20;;;7.16;62.03;101293.75;5049062;28;20049;-72
2022/12/27 05:28:59;;;;;;;12.70;3.05;;;8.10;78.20;;;7.15;61.54;101300.06;5070144;28;20058;-73
2022/12/27 05:31:29;;;;;;;12.63;2.80;;;8.10;78.00;;;7.04;62.10;101299.59;5073162;28;20049;-73
2022/12/27 05:33:57;;;;;;;14.57;2.67;;;8.10;78.50;;;7.00;62.42;101306.22;5065393;28;20098;-73
2022/12/27 05:36:25;;;;;;;11.07;3.70;;;8.00;78.60;;;7.03;62.66;101309.38;5068144;28;20040;-72
2022/12/27 05:38:52;;;;;;;12.90;3.42;;;8.10;78.80;;;7.04;62.41;101321.63;5069021;28;20047;-73
2022/12/27 05:41:19;;;;;;;12.40;3.00;;;8.00;78.90;;;6.95;62.97;101322.63;5067577;28;20044;-73
2022/12/27 05:43:47;;;;;;;9.43;2.30;;;8.00;79.10;;;7.00;62.76;101324.78;5063426;28;20052;-73
2022/12/27 05:46:18;;;;;;;8.90;2.20;;;8.00;79.30;;;7.09;62.75;101327.25;5067930;28;20041;-72
2022/12/27 05:48:46;;;;;;;9.68;2.88;;;8.10;79.60;;;7.15;62.78;101318.63;5068904;28;20040;-72
2022/12/27 05:51:16;;;;;;;9.40;2.67;;;8.10;79.30;;;7.07;62.88;101326.56;5067689;28;20105;-73
2022/12/27 05:53:44;;;;;;;14.70;3.00;;;8.10;79.20;;;7.10;62.81;101326.25;5070694;28;20778;-72
2022/12/27 05:56:16;;;;;;;10.70;3.17;;;8.10;79.20;;;7.09;62.78;101324.59;5052869;28;20052;-72
2022/12/27 05:58:43;;;;;;;8.20;2.78;;;8.10;79.20;;;7.03;62.82;101321.78;5067417;28;20039;-73
2022/12/27 06:01:17;;;;;;;13.10;3.38;;;8.10;79.20;;;7.00;62.60;101315.00;5057158;28;20056;-72
2022/12/27 06:03:45;;;;;;;13.43;3.25;;;8.10;79.10;;;6.94;63.00;101311.19;5050478;28;20052;-73
2022/12/27 06:06:13;;;;;;;12.63;3.42;;;8.00;79.00;;;6.94;62.80;101318.31;5060510;28;20667;-73
2022/12/27 06:08:40;;;;;;;9.68;3.03;;;8.00;79.10;;;6.96;63.13;101334.88;5074564;28;20044;-73
2022/12/27 06:11:10;;;;;;;18.73;3.35;;;8.00;79.20;;;6.95;62.87;101341.19;5080171;28;20048;-73
2022/12/27 06:13:39;;;;;;;12.80;3.33;;;8.00;79.00;;;7.02;62.69;101338.69;5074203;28;20040;-74
2022/12/27 06:16:10;;;;;;;13.60;3.50;;;8.00;79.20;;;7.03;62.65;101337.69;5056036;28;20492;-73
2022/12/27 06:18:40;;;;;;;;;;;8.00;79.30;;;6.97;62.66;101349.78;5063664;28;20068;-73
2022/12/27 06:21:11;;;;;;;13.05;3.40;;;7.90;79.40;;;6.94;63.08;101355.44;5054044;28;19924;-73
2022/12/27 06:23:41;;;;;;;12.23;3.00;;;7.90;79.60;;;7.01;63.19;101353.78;5068120;28;20052;-72
2022/12/27 06:26:12;;;;;;;8.50;2.93;;;8.00;79.60;;;7.08;62.99;101352.13;5062886;28;20528;-73
2022/12/27 06:28:40;;;;;;;14.90;3.05;;;8.00;79.60;;;7.03;62.73;101356.25;5088301;28;20036;-73
2022/12/27 06:31:10;;;;;;;14.60;3.13;;;8.00;79.40;;;7.10;63.04;101354.59;5077165;28;20043;-73
2022/12/27 06:33:38;;;;;;;9.35;2.65;;;8.00;79.60;;;7.14;62.48;101362.06;5066054;28;20909;-73
2022/12/27 06:36:07;;;;;;;9.25;2.72;;;8.10;79.60;;;7.15;62.51;101352.28;5071691;28;20135;-73
2022/12/27 06:38:35;;;;;;;14.80;3.17;;;8.10;79.60;;;7.19;62.39;101359.75;5052405;28;20036;-72
2022/12/27 06:41:02;;;;;;;11.75;3.05;;;8.10;79.40;;;7.17;62.22;101366.19;5051939;28;20060;-72
2022/12/27 06:43:30;;;;;;;10.55;2.90;;;8.10;79.20;;;7.17;62.43;101361.75;5053925;28;20051;-73
2022/12/27 06:45:58;;;;;;;11.38;3.22;;;8.10;79.40;;;7.09;62.56;101369.69;5063437;28;20078;-74
2022/12/27 06:48:25;;;;;;;9.55;3.10;;;8.10;79.30;;;7.05;62.54;101370.19;5073719;28;20053;-73
2022/12/27 06:50:54;;;;;;;11.45;3.47;;;8.10;79.00;;;7.05;62.62;101367.53;5063575;28;20500;-73
2022/12/27 06:53:21;;;;;;;16.58;3.40;;;8.00;79.30;;;7.10;62.67;101357.25;5070266;28;20123;-74
2022/12/27 06:55:49;;;;;;;14.77;3.95;;;8.00;79.20;;;7.11;62.26;101373.00;5062099;28;20071;-74
2022/12/27 06:58:16;;;;;;;15.40;3.13;;;8.00;79.00;;;7.08;62.27;101365.38;5067711;28;20454;-74
2022/12/27 07:00:43;;;;;;;8.55;2.65;;;8.10;79.10;;;7.04;62.28;101363.22;5074092;28;20048;-74
2022/12/27 07:03:10;;;;;;;9.70;3.25;;;8.00;79.00;;;7.06;62.27;101367.38;5055211;28;20048;-74
2022/12/27 07:05:39;;;;;;;8.90;2.90;;;8.00;79.20;;;7.07;62.64;101374.31;5061875;28;20049;-74
2022/12/27 07:08:07;;;;;;;12.45;3.08;;;8.00;79.20;;;7.00;62.47;101370.69;5070131;28;20129;-74
2022/12/27 07:10:36;;;;;;;9.48;3.90;;;8.00;79.10;;;6.95;62.80;101379.13;5059277;28;20597;-74
2022/12/27 07:13:03;;;;;;;11.32;3.90;;;8.00;79.00;;;6.89;62.35;101385.09;5066457;28;20064;-76
2022/12/27 07:15:31;;;;;;;9.68;3.20;;;8.00;79.00;;;6.85;62.79;101385.59;5063765;28;20051;-76
2022/12/27 07:17:59;;;;;;;11.13;3.13;;;7.90;79.30;;;6.94;62.90;101389.91;5076727;28;20050;-75
2022/12/27 07:20:26;;;;;;;9.25;3.22;;;7.90;79.50;;;7.01;62.47;101392.72;5071315;28;20048;-76
2022/12/27 07:22:53;;;;;;;12.23;3.17;;;7.90;79.30;;;7.02;62.59;101389.06;5068357;28;20530;-76
2022/12/27 07:25:21;;;;;;;11.55;3.70;;;8.00;79.00;;;7.04;62.54;101398.53;5058361;28;20044;-76
2022/12/27 07:27:48;;;;;;;6.70;3.45;;;8.00;79.10;;;7.08;62.21;101397.22;5065741;28;20128;-76
2022/12/27 07:30:28;;;;;;;15.25;3.00;;;8.00;78.90;;;7.03;62.25;101388.06;5050999;28;20049;-76
2022/12/27 07:32:56;;;;;;;16.67;3.50;;;7.80;78.80;;;7.04;62.10;101400.38;5051925;28;20041;-76
2022/12/27 07:35:23;;;;;;;12.20;2.97;;;7.90;79.00;;;7.03;62.39;101406.63;5069705;28;20057;-76
2022/12/27 07:37:50;;;;;;;13.35;3.40;;;7.90;79.10;;;7.05;62.00;101408.16;5074950;28;20047;-75
2022/12/27 07:40:17;;;;;;;13.27;3.13;;;7.90;78.80;;;7.06;62.09;101415.09;5077344;28;20054;-75
2022/12/27 07:42:46;;;;;;;11.57;3.30;;;7.90;78.90;;;7.07;61.74;101415.94;5063648;28;20070;-75
2022/12/27 07:45:13;;;;;;;17.48;3.80;;;7.90;78.90;;;6.96;61.80;101417.09;5064798;28;20056;-75
2022/12/27 07:47:40;;;;;;;11.80;3.17;;;7.90;78.80;;;7.01;62.40;101417.41;5081735;28;20048;-75
2022/12/27 07:50:08;;;;;;;15.45;3.33;;;7.90;79.10;;;6.96;62.03;101417.09;5081699;28;20040;-75
2022/12/27 07:52:35;;;;;;;10.27;3.22;;;7.90;78.80;;;6.91;62.38;101425.53;5069381;28;20048;-74
2022/12/27 07:55:03;;;;;;;12.23;3.10;;;7.90;79.20;;;6.96;62.17;101423.22;5067806;28;20591;-76
2022/12/27 07:57:30;;;;;;;11.98;2.85;;;7.90;79.20;;;6.95;62.09;101428.69;5077339;28;20044;-75
2022/12/27 07:59:58;;;;;;;9.93;2.90;;;7.90;79.20;;;6.91;62.47;101422.88;5060857;28;20495;-75
2022/12/27 08:02:26;;;;;;;9.10;3.33;;;7.90;79.10;;;6.89;62.76;101424.06;5062972;28;20045;-75
2022/12/27 08:04:55;;;;;;;10.88;2.70;;;8.10;79.40;;;6.95;62.68;101428.69;5069110;28;20056;-75
2022/12/27 08:07:24;;;;;;;15.23;3.45;;;7.90;79.30;;;7.01;62.45;101433.34;5073183;28;20040;-75
2022/12/27 08:09:52;;;;;;;9.75;2.78;;;7.90;79.10;;;7.02;62.18;101440.28;5070506;28;20488;-75
2022/12/27 08:12:20;;;;;;;14.38;3.17;;;7.90;79.20;;;7.00;62.25;101434.34;5066540;28;20036;-75
2022/12/27 08:14:47;;;;;;;15.15;3.38;;;7.90;79.10;;;6.96;62.11;101438.31;5065744;28;20044;-76
2022/12/27 08:17:20;;;;;;;13.93;3.30;;;7.90;79.10;;;6.88;62.68;101448.88;5066804;28;20058;-78
2022/12/27 08:19:48;;;;;;;19.33;3.30;;;7.90;79.30;;;6.86;63.58;101454.34;5061085;28;20055;-77
2022/12/27 08:22:15;;;;;;;16.35;3.70;;;7.90;80.50;;;6.92;64.09;101455.53;5076515;28;20499;-78
2022/12/27 08:24:42;;;;;;;18.20;3.45;;;7.90;81.00;;;7.01;64.00;101456.38;5068755;28;20126;-77
2022/12/27 08:27:10;;;;;;;24.88;3.90;;;7.90;80.80;;;7.05;63.77;101453.25;5073874;28;20043;-77
2022/12/27 08:29:38;;;;;;;13.27;2.75;;;7.90;80.90;;;7.10;63.28;101453.56;5069642;28;20044;-78
2022/12/27 08:32:06;;;;;;;9.32;2.58;;;7.90;80.80;;;7.13;63.09;101457.72;5064114;28;20059;-77
2022/12/27 08:34:34;;;;;;;8.95;2.72;;;8.00;80.10;;;7.13;63.05;101453.25;5066420;28;20044;-76
2022/12/27 08:37:01;;;;;;;16.35;3.00;;;7.90;79.90;;;7.02;62.38;101452.72;5055856;28;20048;-76
2022/12/27 08:39:29;;;;;;;13.48;2.75;;;7.90;79.50;;;7.02;63.02;101458.84;5054309;28;20103;-75
2022/12/27 08:41:56;;;;;;;9.93;2.85;;;7.90;79.80;;;6.98;62.76;101454.91;5080520;28;20063;-82
2022/12/27 08:44:24;;;;;;;14.55;2.90;;;7.90;79.60;;;7.05;62.51;101461.19;5065607;28;20891;-75
2022/12/27 08:46:51;;;;;;;13.38;3.03;;;7.90;79.70;;;6.98;62.71;101449.59;5058737;28;20056;-75
2022/12/27 08:49:19;;;;;;;8.82;2.50;;;8.10;79.60;;;6.93;63.19;101468.66;5036393;28;20492;-75
2022/12/27 08:51:47;;;;;;;14.02;3.22;;;8.00;79.60;;;7.01;63.11;101467.81;5059413;28;20496;-75
2022/12/27 08:54:14;;;;;;;9.07;3.58;;;8.00;79.60;;;7.02;62.98;101474.78;5056499;28;20052;-75
2022/12/27 08:56:41;;;;;;;9.07;2.63;;;8.00;79.50;;;7.06;62.96;101468.16;5068290;28;20062;-76
2022/12/27 08:59:08;;;;;;;11.07;2.42;;;8.00;79.60;;;7.06;62.92;101470.81;5070389;28;20051;-76
2022/12/27 09:01:36;;;;;;;8.75;2.80;;;8.00;79.50;;;7.01;62.99;101477.59;5067044;28;20114;-76
2022/12/27 09:04:03;;;;;;;13.40;2.88;;;8.00;79.60;;;7.05;63.04;101473.63;5065447;28;20036;-76
2022/12/27 09:06:30;;;;;;;15.52;3.35;;;8.00;79.60;;;7.09;62.70;101472.31;5069168;28;20131;-76
2022/12/27 09:09:00;;;;;;;10.35;2.70;;;8.00;79.60;;;7.07;62.89;101467.16;5063520;28;20040;-76
2022/12/27 09:11:29;;;;;;;16.42;3.10;;;8.00;79.70;;;7.11;62.98;101472.97;5068534;28;20471;-76
2022/12/27 09:14:00;;;;;;;11.15;2.78;;;7.90;79.80;;;7.08;62.86;101474.13;5070345;28;20032;-76
2022/12/27 09:16:29;;;;;;;13.90;3.17;;;8.00;79.80;;;7.11;63.07;101476.44;5055240;28;20043;-76
2022/12/27 09:18:58;;;;;;;12.75;3.42;;;8.00;80.00;;;7.05;62.78;101471.81;5047730;28;20461;-76
2022/12/27 09:21:28;;;;;;;9.88;2.45;;;8.00;79.80;;;6.97;63.31;101479.72;5062996;28;20542;-76
2022/12/27 09:23:58;;;;;;;9.55;2.80;;;7.90;80.20;;;6.96;63.41;101480.72;5058885;28;20110;-76
2022/12/27 09:26:29;;;;;;;12.65;3.13;;;7.90;80.10;;;6.97;63.36;101479.72;5052280;28;20697;-76
2022/12/27 09:28:57;;;;;;;9.75;3.10;;;7.90;80.40;;;6.97;63.67;101487.69;5066858;28;20036;-76
2022/12/27 09:31:25;;;;;;;11.38;3.25;;;7.90;80.60;;;7.01;63.55;101486.38;5067868;28;20055;-76
2022/12/27 09:33:53;;;;;;;16.02;3.00;;;7.90;80.60;;;7.04;63.42;101482.59;5064662;28;20040;-78
2022/12/27 09:36:22;;;;;;;11.13;2.78;;;8.00;80.60;;;7.01;63.65;101478.41;5070506;28;20044;-77
2022/12/27 09:38:51;;;;;;;12.32;3.05;;;8.00;80.40;;;6.97;64.06;101480.56;5080493;28;20381;-77
2022/12/27 09:41:32;;;;;;;10.38;2.72;;;8.00;80.60;;;6.93;64.10;101483.72;5048519;28;20131;-78
2022/12/27 09:44:05;;;;;;;14.73;3.67;;;8.00;80.60;;;6.96;63.97;101489.50;5047868;28;20099;-77
2022/12/27 09:46:38;;;;;;;11.70;2.70;;;8.00;80.80;;;6.93;64.25;101486.38;5054389;28;20090;-77
2022/12/27 09:49:09;;;;;;;15.50;3.30;;;8.00;80.90;;;6.99;64.82;101483.06;5079324;28;20070;-76
2022/12/27 09:51:46;;;;;;;10.70;2.47;;;8.00;81.70;;;7.00;64.54;101476.78;5056070;28;20646;-76
2022/12/27 09:54:19;;;;;;;12.85;3.13;;;8.00;81.40;;;7.03;64.42;101478.25;5072366;28;20078;-78
2022/12/27 09:56:51;;;;;;;16.17;3.17;;;8.00;81.30;;;7.08;64.52;101475.97;5068198;28;20043;-76
2022/12/27 09:59:26;;;;;;;16.00;3.17;;;8.00;81.40;;;7.12;64.40;101472.78;5077079;28;20090;-77
2022/12/27 10:01:53;;;;;;;11.55;3.33;;;8.10;81.50;;;7.12;64.18;101478.09;5047368;28;20513;-77
2022/12/27 10:04:21;;;;;;;11.98;3.15;;;8.10;81.40;;;7.14;64.51;101483.25;5066232;28;20055;-77
2022/12/27 10:07:09;;;;;;;15.13;3.65;;;8.10;81.40;;;7.18;64.36;101481.94;5073582;28;20109;-77
2022/12/27 10:10:00;;;;;;;13.15;3.25;;;8.10;81.40;;;7.23;64.34;101480.47;5070095;28;20045;-76
2022/12/27 10:13:23;;;;;;;13.88;2.88;;;8.20;81.30;;;7.29;64.15;101478.13;5075280;28;20423;-77
2022/12/27 10:16:00;;;;;;;10.50;2.75;;;8.20;81.20;;;7.22;64.00;101478.81;5064503;28;20044;-77
2022/12/27 10:18:44;;;;;;;11.80;2.88;;;8.20;81.20;;;7.27;64.08;101467.69;5068810;28;20127;-77
2022/12/27 10:21:20;;;;;;;11.10;2.88;;;8.20;81.20;;;7.28;64.22;101472.00;5051311;28;20054;-78
2022/12/27 10:23:54;;;;;;;13.88;2.85;;;8.20;81.20;;;7.26;64.38;101467.84;5061882;28;20072;-76
2022/12/27 10:26:24;;;;;;;16.42;2.83;;;8.20;81.20;;;7.27;64.06;101480.09;5067568;28;20044;-77
2022/12/27 10:28:58;;;;;;;14.32;3.33;;;8.20;81.30;;;7.26;64.56;101479.28;5075993;28;20176;-77
2022/12/27 10:31:26;;;;;;;9.40;2.72;;;8.20;81.40;;;7.30;64.61;101475.31;5088417;28;20070;-76
2022/12/27 10:33:54;;;;;;;14.20;3.40;;;8.30;81.40;;;7.30;64.20;101480.63;5069651;28;20044;-77
2022/12/27 10:36:25;;;;;;;9.55;3.08;;;8.30;81.30;;;7.31;64.36;101481.44;5060910;28;20422;-77
2022/12/27 10:38:53;;;;;;;9.73;3.30;;;8.30;81.60;;;7.34;64.49;101476.66;5063544;28;20047;-77
2022/12/27 10:41:32;;;;;;;11.68;3.05;;;8.30;81.60;;;7.35;64.53;101475.66;5068216;28;20120;-77
2022/12/27 10:44:01;;;;;;;8.57;2.65;;;8.30;81.60;;;7.33;64.72;101472.34;5067475;28;20036;-77
2022/12/27 10:46:31;;;;;;;10.55;2.95;;;8.30;81.50;;;7.41;64.60;101474.16;5070745;28;20048;-77
2022/12/27 10:49:00;;;;;;;10.48;3.15;;;8.40;81.40;;;7.38;64.55;101477.16;5074206;28;20132;-77
2022/12/27 10:51:44;;;;;;;12.57;2.92;;;8.30;81.50;;;7.40;64.45;101472.50;5047729;28;20144;-77
2022/12/27 10:54:13;;;;;;;13.35;3.30;;;8.30;81.60;;;7.44;64.75;101479.13;5062964;28;20052;-77
2022/12/27 10:56:43;;;;;;;13.80;3.20;;;8.40;81.60;;;7.42;64.55;101470.53;5063863;28;20133;-78
2022/12/27 10:59:15;;;;;;;13.65;3.13;;;8.40;81.60;;;7.38;64.91;101471.84;5053599;28;20070;-77
2022/12/27 11:01:46;;;;;;;13.55;3.97;;;8.40;81.80;;;7.43;64.97;101474.81;5073828;28;20579;-77
2022/12/27 11:04:18;;;;;;;9.93;2.83;;;8.40;81.70;;;7.46;64.67;101477.13;5054997;28;20071;-77
2022/12/27 11:06:47;;;;;;;13.73;3.25;;;8.40;81.60;;;7.45;64.72;101470.16;5067325;28;20040;-77
2022/12/27 11:09:30;;;;;;;14.68;3.40;;;8.40;81.60;;;7.47;64.72;101470.84;5071942;28;20595;-77
2022/12/27 11:12:18;;;;;;;13.18;3.47;;;8.50;81.80;;;7.48;64.91;101478.63;5071145;28;20054;-77
2022/12/27 11:14:59;;;;;;;13.93;3.85;;;8.50;81.80;;;7.45;64.71;101478.97;5064910;28;20060;-77
2022/12/27 11:17:28;;;;;;;;;;;8.50;81.70;;;7.47;64.77;101476.16;5064170;28;20044;-77
2022/12/27 11:19:58;;;;;;;13.23;3.30;;;8.50;81.90;;;7.48;64.88;101483.13;5083063;28;19931;-77
2022/12/27 11:22:26;;;;;;;15.63;2.97;;;8.50;81.80;;;7.43;64.75;101474.81;5061436;28;20049;-78
2022/12/27 11:25:00;;;;;;;11.27;3.10;;;8.40;81.50;;;7.42;64.59;101478.47;5065980;28;20119;-77
2022/12/27 11:27:29;;;;;;;9.93;3.17;;;8.40;81.50;;;7.39;65.03;101476.97;5066018;28;20048;-77
2022/12/27 11:29:59;;;;;;;10.85;3.00;;;8.40;81.70;;;7.41;64.70;101482.94;5066219;28;20041;-77
2022/12/27 11:32:27;;;;;;;13.93;3.10;;;8.40;81.80;;;7.42;65.18;101483.78;5055662;28;20043;-77
2022/12/27 11:34:56;;;;;;;13.30;3.20;;;8.40;81.90;;;7.46;65.21;101482.44;5061456;28;20040;-77
2022/12/27 11:37:26;;;;;;;14.65;3.33;;;8.40;81.80;;;7.49;65.12;101476.81;5067180;28;20045;-78
2022/12/27 11:39:55;;;;;;;12.75;2.78;;;8.50;82.20;;;7.52;65.17;101481.81;5068022;28;20044;-77
2022/12/27 11:42:32;;;;;;;14.50;3.67;;;8.50;82.20;;;7.53;65.12;101483.44;5042369;28;20049;-77
2022/12/27 11:45:12;;;;;;;11.00;2.85;;;8.50;82.00;;;7.53;64.76;101478.16;5065327;28;20067;-81
2022/12/27 11:47:49;;;;;;;13.25;2.90;;;8.50;82.20;;;7.58;65.24;101477.66;5066806;28;20044;-81
2022/12/27 11:50:37;;;;;;;9.35;2.97;;;8.50;82.60;;;7.55;65.14;101478.78;5057021;28;20512;-78
2022/12/27 11:53:19;;;;;;;13.98;2.67;;;8.50;82.20;;;7.52;65.20;101465.88;5054543;28;20179;-80
2022/12/27 11:56:24;;;;;;;13.00;3.10;;;8.50;82.10;;;7.56;65.33;101475.13;5068053;28;20047;-79
2022/12/27 11:59:30;;;;;;;9.00;2.85;;;8.60;82.20;;;7.54;65.22;101469.19;5024134;28;20057;-78
2022/12/27 12:02:46;;;;;;;8.98;2.83;;;8.60;82.20;;;7.60;65.46;101463.19;5033412;28;20073;-77
2022/12/27 12:05:45;;;;;;;12.27;3.05;;;8.60;82.50;;;7.59;65.39;101466.84;5059370;28;20055;-79
2022/12/27 12:08:59;;;;;;;10.20;3.15;;;8.60;82.60;;;7.59;65.49;101474.00;5056525;28;20048;-79
2022/12/27 12:11:42;;;;;;;11.75;2.50;;;8.60;82.50;;;7.60;65.59;101471.16;5062005;28;20041;-78
2022/12/27 12:15:12;;;;;;;12.05;2.83;;;8.60;82.40;;;7.60;65.37;101459.72;5064875;28;20067;-79
2022/12/27 12:18:24;;;;;;;12.43;2.60;;;8.60;82.20;;;7.63;65.59;101464.69;5095362;22;20047;-79
2022/12/27 12:21:25;;;;;;;9.75;2.60;;;8.60;82.70;;;7.70;65.66;101457.72;5106793;28;20043;-79
2022/12/27 12:24:25;;;;;;;8.68;2.50;;;8.70;82.70;;;7.71;65.50;101454.91;5106086;28;20517;-79